sensor_id;sensor_type;location;lat;lon;timestamp;P1;durP1;ratioP1;P2;durP2;ratioP2
58808;SDS011;44579;51.672;7.834;2022-11-24T00:00:50;15.23;;;3.72;;
58808;SDS011;44579;51.672;7.834;2022-11-24T00:03:17;18.70;;;2.30;;
58808;SDS011;44579;51.672;7.834;2022-11-24T00:05:44;7.88;;;1.70;;
58808;SDS011;44579;51.672;7.834;2022-11-24T00:08:11;2.03;;;1.70;;
58808;SDS011;44579;51.672;7.834;2022-11-24T00:10:38;5.20;;;2.30;;
58808;SDS011;44579;51.672;7.834;2022-11-24T00:13:05;14.45;;;3.22;;
58808;SDS011;44579;51.672;7.834;2022-11-24T00:15:32;9.35;;;2.83;;
58808;SDS011;44579;51.672;7.834;2022-11-24T00:17:59;26.48;;;2.60;;
58808;SDS011;44579;51.672;7.834;2022-11-24T00:20:25;8.90;;;1.83;;
58808;SDS011;44579;51.672;7.834;2022-11-24T00:22:52;7.88;;;2.78;;
58808;SDS011;44579;51.672;7.834;2022-11-24T00:25:19;18.50;;;3.20;;
58808;SDS011;44579;51.672;7.834;2022-11-24T00:27:46;10.33;;;2.50;;
58808;SDS011;44579;51.672;7.834;2022-11-24T00:30:13;7.57;;;2.20;;
58808;SDS011;44579;51.672;7.834;2022-11-24T00:32:40;12.43;;;2.15;;
58808;SDS011;44579;51.672;7.834;2022-11-24T00:35:07;2.77;;;1.60;;
58808;SDS011;44579;51.672;7.834;2022-11-24T00:37:34;15.35;;;2.35;;
58808;SDS011;44579;51.672;7.834;2022-11-24T00:40:01;21.33;;;3.08;;
58808;SDS011;44579;51.672;7.834;2022-11-24T00:42:28;9.27;;;2.30;;
58808;SDS011;44579;51.672;7.834;2022-11-24T00:44:55;8.75;;;1.27;;
58808;SDS011;44579;51.672;7.834;2022-11-24T00:47:21;14.98;;;1.98;;
58808;SDS011;44579;51.672;7.834;2022-11-24T00:49:48;14.60;;;1.93;;
58808;SDS011;44579;51.672;7.834;2022-11-24T00:52:15;14.43;;;1.83;;
58808;SDS011;44579;51.672;7.834;2022-11-24T00:54:42;7.70;;;1.27;;
58808;SDS011;44579;51.672;7.834;2022-11-24T00:57:09;19.25;;;2.72;;
58808;SDS011;44579;51.672;7.834;2022-11-24T00:59:36;12.40;;;2.33;;
58808;SDS011;44579;51.672;7.834;2022-11-24T01:02:03;5.90;;;2.28;;
58808;SDS011;44579;51.672;7.834;2022-11-24T01:04:30;13.07;;;2.60;;
58808;SDS011;44579;51.672;7.834;2022-11-24T01:06:58;5.68;;;1.98;;
58808;SDS011;44579;51.672;7.834;2022-11-24T01:09:25;14.87;;;1.77;;
58808;SDS011;44579;51.672;7.834;2022-11-24T01:11:52;25.00;;;3.42;;
58808;SDS011;44579;51.672;7.834;2022-11-24T01:14:27;5.93;;;1.55;;
58808;SDS011;44579;51.672;7.834;2022-11-24T01:16:55;21.33;;;1.52;;
58808;SDS011;44579;51.672;7.834;2022-11-24T01:19:22;24.30;;;2.40;;
58808;SDS011;44579;51.672;7.834;2022-11-24T01:21:49;5.25;;;2.72;;
58808;SDS011;44579;51.672;7.834;2022-11-24T01:24:16;8.32;;;3.13;;
58808;SDS011;44579;51.672;7.834;2022-11-24T01:26:43;8.13;;;1.88;;
58808;SDS011;44579;51.672;7.834;2022-11-24T01:29:11;19.65;;;2.80;;
58808;SDS011;44579;51.672;7.834;2022-11-24T01:31:38;19.40;;;2.55;;
58808;SDS011;44579;51.672;7.834;2022-11-24T01:34:05;20.77;;;2.60;;
58808;SDS011;44579;51.672;7.834;2022-11-24T01:36:33;12.63;;;3.03;;
58808;SDS011;44579;51.672;7.834;2022-11-24T01:39:01;16.15;;;2.20;;
58808;SDS011;44579;51.672;7.834;2022-11-24T01:41:28;17.92;;;2.47;;
58808;SDS011;44579;51.672;7.834;2022-11-24T01:43:55;19.27;;;3.30;;
58808;SDS011;44579;51.672;7.834;2022-11-24T01:46:27;26.67;;;2.58;;
58808;SDS011;44579;51.672;7.834;2022-11-24T01:51:50;14.25;;;3.55;;
58808;SDS011;44579;51.672;7.834;2022-11-24T01:54:30;12.77;;;2.15;;
58808;SDS011;44579;51.672;7.834;2022-11-24T01:57:02;26.45;;;3.05;;
58808;SDS011;44579;51.672;7.834;2022-11-24T01:59:35;13.55;;;2.70;;
58808;SDS011;44579;51.672;7.834;2022-11-24T02:02:03;14.10;;;2.40;;
58808;SDS011;44579;51.672;7.834;2022-11-24T02:04:30;12.02;;;1.73;;
58808;SDS011;44579;51.672;7.834;2022-11-24T02:07:00;8.35;;;2.28;;
58808;SDS011;44579;51.672;7.834;2022-11-24T02:12:06;19.75;;;2.58;;
58808;SDS011;44579;51.672;7.834;2022-11-24T02:14:33;7.65;;;1.90;;
58808;SDS011;44579;51.672;7.834;2022-11-24T02:17:01;14.27;;;2.92;;
58808;SDS011;44579;51.672;7.834;2022-11-24T02:27:55;26.50;;;2.35;;
58808;SDS011;44579;51.672;7.834;2022-11-24T02:30:24;22.00;;;2.58;;
58808;SDS011;44579;51.672;7.834;2022-11-24T02:32:54;5.93;;;2.30;;
58808;SDS011;44579;51.672;7.834;2022-11-24T02:35:21;7.38;;;1.45;;
58808;SDS011;44579;51.672;7.834;2022-11-24T02:37:48;8.85;;;3.30;;
58808;SDS011;44579;51.672;7.834;2022-11-24T02:40:17;13.67;;;1.93;;
58808;SDS011;44579;51.672;7.834;2022-11-24T02:42:54;11.90;;;2.03;;
58808;SDS011;44579;51.672;7.834;2022-11-24T02:45:25;29.02;;;2.00;;
58808;SDS011;44579;51.672;7.834;2022-11-24T02:47:53;14.68;;;2.88;;
58808;SDS011;44579;51.672;7.834;2022-11-24T02:50:19;1.87;;;1.43;;
58808;SDS011;44579;51.672;7.834;2022-11-24T02:52:46;15.85;;;2.40;;
58808;SDS011;44579;51.672;7.834;2022-11-24T02:55:13;14.97;;;1.40;;
58808;SDS011;44579;51.672;7.834;2022-11-24T02:57:40;22.00;;;2.13;;
58808;SDS011;44579;51.672;7.834;2022-11-24T03:00:07;22.03;;;2.60;;
58808;SDS011;44579;51.672;7.834;2022-11-24T03:05:01;2.70;;;1.45;;
58808;SDS011;44579;51.672;7.834;2022-11-24T03:07:28;12.03;;;1.67;;
58808;SDS011;44579;51.672;7.834;2022-11-24T03:09:55;15.30;;;2.63;;
58808;SDS011;44579;51.672;7.834;2022-11-24T03:12:22;21.50;;;2.15;;
58808;SDS011;44579;51.672;7.834;2022-11-24T03:14:49;11.93;;;1.92;;
58808;SDS011;44579;51.672;7.834;2022-11-24T03:17:16;6.35;;;1.60;;
58808;SDS011;44579;51.672;7.834;2022-11-24T03:19:43;6.43;;;1.23;;
58808;SDS011;44579;51.672;7.834;2022-11-24T03:22:10;36.38;;;2.92;;
58808;SDS011;44579;51.672;7.834;2022-11-24T03:24:38;9.90;;;2.05;;
58808;SDS011;44579;51.672;7.834;2022-11-24T03:27:05;9.48;;;1.58;;
58808;SDS011;44579;51.672;7.834;2022-11-24T03:29:32;4.23;;;1.73;;
58808;SDS011;44579;51.672;7.834;2022-11-24T03:31:59;16.70;;;2.05;;
58808;SDS011;44579;51.672;7.834;2022-11-24T03:34:26;15.25;;;2.08;;
58808;SDS011;44579;51.672;7.834;2022-11-24T03:36:53;10.63;;;1.77;;
58808;SDS011;44579;51.672;7.834;2022-11-24T03:39:20;7.07;;;2.47;;
58808;SDS011;44579;51.672;7.834;2022-11-24T03:41:47;10.90;;;2.60;;
58808;SDS011;44579;51.672;7.834;2022-11-24T03:44:16;17.92;;;4.10;;
58808;SDS011;44579;51.672;7.834;2022-11-24T03:46:43;14.20;;;2.35;;
58808;SDS011;44579;51.672;7.834;2022-11-24T03:49:10;11.98;;;3.55;;
58808;SDS011;44579;51.672;7.834;2022-11-24T03:51:37;16.98;;;2.20;;
58808;SDS011;44579;51.672;7.834;2022-11-24T03:54:04;28.55;;;2.25;;
58808;SDS011;44579;51.672;7.834;2022-11-24T03:56:31;22.33;;;2.10;;
58808;SDS011;44579;51.672;7.834;2022-11-24T03:58:58;22.00;;;2.55;;
58808;SDS011;44579;51.672;7.834;2022-11-24T04:01:25;6.00;;;1.48;;
58808;SDS011;44579;51.672;7.834;2022-11-24T04:03:52;9.88;;;2.22;;
58808;SDS011;44579;51.672;7.834;2022-11-24T04:06:19;6.07;;;2.33;;
58808;SDS011;44579;51.672;7.834;2022-11-24T04:08:46;12.15;;;1.77;;
58808;SDS011;44579;51.672;7.834;2022-11-24T04:11:12;36.38;;;2.83;;
58808;SDS011;44579;51.672;7.834;2022-11-24T04:13:59;23.95;;;2.30;;
58808;SDS011;44579;51.672;7.834;2022-11-24T04:16:26;15.32;;;2.28;;
58808;SDS011;44579;51.672;7.834;2022-11-24T04:18:53;15.87;;;1.83;;
58808;SDS011;44579;51.672;7.834;2022-11-24T04:21:20;26.60;;;2.40;;
58808;SDS011;44579;51.672;7.834;2022-11-24T04:23:47;20.67;;;2.33;;
58808;SDS011;44579;51.672;7.834;2022-11-24T04:26:13;4.82;;;1.85;;
58808;SDS011;44579;51.672;7.834;2022-11-24T04:28:40;8.10;;;1.67;;
58808;SDS011;44579;51.672;7.834;2022-11-24T04:31:07;10.77;;;1.60;;
58808;SDS011;44579;51.672;7.834;2022-11-24T04:33:34;17.25;;;2.47;;
58808;SDS011;44579;51.672;7.834;2022-11-24T04:36:01;5.68;;;2.17;;
58808;SDS011;44579;51.672;7.834;2022-11-24T04:38:27;25.42;;;2.58;;
58808;SDS011;44579;51.672;7.834;2022-11-24T04:41:14;25.08;;;1.95;;
58808;SDS011;44579;51.672;7.834;2022-11-24T04:43:41;14.43;;;2.60;;
58808;SDS011;44579;51.672;7.834;2022-11-24T04:46:09;18.92;;;2.20;;
58808;SDS011;44579;51.672;7.834;2022-11-24T04:48:37;33.10;;;3.08;;
58808;SDS011;44579;51.672;7.834;2022-11-24T04:51:04;14.55;;;1.33;;
58808;SDS011;44579;51.672;7.834;2022-11-24T04:56:02;38.85;;;4.05;;
58808;SDS011;44579;51.672;7.834;2022-11-24T04:58:31;10.25;;;1.50;;
58808;SDS011;44579;51.672;7.834;2022-11-24T05:00:58;20.10;;;2.67;;
58808;SDS011;44579;51.672;7.834;2022-11-24T05:03:25;16.08;;;2.33;;
58808;SDS011;44579;51.672;7.834;2022-11-24T05:05:52;13.23;;;1.73;;
58808;SDS011;44579;51.672;7.834;2022-11-24T05:08:19;23.15;;;3.58;;
58808;SDS011;44579;51.672;7.834;2022-11-24T05:10:46;24.48;;;3.20;;
58808;SDS011;44579;51.672;7.834;2022-11-24T05:13:13;28.13;;;3.17;;
58808;SDS011;44579;51.672;7.834;2022-11-24T05:15:40;18.15;;;2.60;;
58808;SDS011;44579;51.672;7.834;2022-11-24T05:18:10;8.93;;;1.67;;
58808;SDS011;44579;51.672;7.834;2022-11-24T05:20:38;16.35;;;3.05;;
58808;SDS011;44579;51.672;7.834;2022-11-24T05:23:06;9.93;;;2.03;;
58808;SDS011;44579;51.672;7.834;2022-11-24T05:25:33;10.40;;;2.03;;
58808;SDS011;44579;51.672;7.834;2022-11-24T05:28:01;6.45;;;1.67;;
58808;SDS011;44579;51.672;7.834;2022-11-24T05:30:30;13.48;;;1.98;;
58808;SDS011;44579;51.672;7.834;2022-11-24T05:32:57;31.75;;;2.75;;
58808;SDS011;44579;51.672;7.834;2022-11-24T05:35:24;17.70;;;2.27;;
58808;SDS011;44579;51.672;7.834;2022-11-24T05:37:51;27.87;;;2.07;;
58808;SDS011;44579;51.672;7.834;2022-11-24T05:40:18;10.27;;;2.35;;
58808;SDS011;44579;51.672;7.834;2022-11-24T05:42:46;7.32;;;1.95;;
58808;SDS011;44579;51.672;7.834;2022-11-24T05:45:14;45.28;;;3.42;;
58808;SDS011;44579;51.672;7.834;2022-11-24T05:47:43;11.45;;;1.98;;
58808;SDS011;44579;51.672;7.834;2022-11-24T05:50:11;21.35;;;1.83;;
58808;SDS011;44579;51.672;7.834;2022-11-24T05:52:39;11.77;;;2.10;;
58808;SDS011;44579;51.672;7.834;2022-11-24T05:55:07;22.52;;;2.97;;
58808;SDS011;44579;51.672;7.834;2022-11-24T05:57:35;12.98;;;2.75;;
58808;SDS011;44579;51.672;7.834;2022-11-24T06:00:05;6.57;;;2.42;;
58808;SDS011;44579;51.672;7.834;2022-11-24T06:02:40;14.02;;;2.50;;
58808;SDS011;44579;51.672;7.834;2022-11-24T06:05:07;12.00;;;1.60;;
58808;SDS011;44579;51.672;7.834;2022-11-24T06:07:34;11.77;;;1.38;;
58808;SDS011;44579;51.672;7.834;2022-11-24T06:10:02;25.85;;;2.28;;
58808;SDS011;44579;51.672;7.834;2022-11-24T06:12:29;14.60;;;1.70;;
58808;SDS011;44579;51.672;7.834;2022-11-24T06:14:56;24.15;;;3.75;;
58808;SDS011;44579;51.672;7.834;2022-11-24T06:17:22;13.70;;;1.73;;
58808;SDS011;44579;51.672;7.834;2022-11-24T06:19:49;3.63;;;1.53;;
58808;SDS011;44579;51.672;7.834;2022-11-24T06:22:17;28.83;;;2.97;;
58808;SDS011;44579;51.672;7.834;2022-11-24T06:24:45;9.02;;;2.05;;
58808;SDS011;44579;51.672;7.834;2022-11-24T06:27:12;6.72;;;1.85;;
58808;SDS011;44579;51.672;7.834;2022-11-24T06:29:39;22.02;;;3.33;;
58808;SDS011;44579;51.672;7.834;2022-11-24T06:32:06;32.17;;;3.93;;
58808;SDS011;44579;51.672;7.834;2022-11-24T06:34:34;20.98;;;2.60;;
58808;SDS011;44579;51.672;7.834;2022-11-24T06:39:28;10.18;;;2.03;;
58808;SDS011;44579;51.672;7.834;2022-11-24T06:41:55;14.70;;;2.28;;
58808;SDS011;44579;51.672;7.834;2022-11-24T06:44:22;10.57;;;1.85;;
58808;SDS011;44579;51.672;7.834;2022-11-24T06:46:49;26.38;;;2.25;;
58808;SDS011;44579;51.672;7.834;2022-11-24T06:49:16;18.40;;;2.65;;
58808;SDS011;44579;51.672;7.834;2022-11-24T06:51:43;51.92;;;3.17;;
58808;SDS011;44579;51.672;7.834;2022-11-24T06:54:13;20.17;;;2.97;;
58808;SDS011;44579;51.672;7.834;2022-11-24T06:56:41;3.17;;;2.05;;
58808;SDS011;44579;51.672;7.834;2022-11-24T06:59:18;18.70;;;2.17;;
58808;SDS011;44579;51.672;7.834;2022-11-24T07:04:12;5.55;;;2.47;;
58808;SDS011;44579;51.672;7.834;2022-11-24T07:06:40;22.77;;;2.38;;
58808;SDS011;44579;51.672;7.834;2022-11-24T07:09:07;19.42;;;3.30;;
58808;SDS011;44579;51.672;7.834;2022-11-24T07:14:02;12.40;;;3.95;;
58808;SDS011;44579;51.672;7.834;2022-11-24T07:16:30;14.52;;;3.53;;
58808;SDS011;44579;51.672;7.834;2022-11-24T07:18:57;20.88;;;2.90;;
58808;SDS011;44579;51.672;7.834;2022-11-24T07:21:25;16.88;;;2.80;;
58808;SDS011;44579;51.672;7.834;2022-11-24T07:23:54;37.17;;;2.67;;
58808;SDS011;44579;51.672;7.834;2022-11-24T07:26:23;12.15;;;2.58;;
58808;SDS011;44579;51.672;7.834;2022-11-24T07:28:50;23.65;;;2.80;;
58808;SDS011;44579;51.672;7.834;2022-11-24T07:31:18;35.72;;;2.05;;
58808;SDS011;44579;51.672;7.834;2022-11-24T07:33:50;41.65;;;4.32;;
58808;SDS011;44579;51.672;7.834;2022-11-24T07:36:18;21.10;;;2.25;;
58808;SDS011;44579;51.672;7.834;2022-11-24T07:38:45;16.05;;;3.15;;
58808;SDS011;44579;51.672;7.834;2022-11-24T07:41:13;20.25;;;2.72;;
58808;SDS011;44579;51.672;7.834;2022-11-24T07:43:41;8.45;;;2.15;;
58808;SDS011;44579;51.672;7.834;2022-11-24T07:46:10;30.75;;;2.78;;
58808;SDS011;44579;51.672;7.834;2022-11-24T07:48:38;15.68;;;2.00;;
58808;SDS011;44579;51.672;7.834;2022-11-24T07:51:06;26.60;;;5.38;;
58808;SDS011;44579;51.672;7.834;2022-11-24T07:53:33;29.52;;;2.90;;
58808;SDS011;44579;51.672;7.834;2022-11-24T07:56:01;16.70;;;3.42;;
58808;SDS011;44579;51.672;7.834;2022-11-24T07:58:30;10.63;;;2.00;;
58808;SDS011;44579;51.672;7.834;2022-11-24T08:00:58;19.17;;;3.42;;
58808;SDS011;44579;51.672;7.834;2022-11-24T08:03:33;7.60;;;2.35;;
58808;SDS011;44579;51.672;7.834;2022-11-24T08:06:00;28.40;;;3.08;;
58808;SDS011;44579;51.672;7.834;2022-11-24T08:08:48;29.05;;;2.47;;
58808;SDS011;44579;51.672;7.834;2022-11-24T08:11:17;9.80;;;3.30;;
58808;SDS011;44579;51.672;7.834;2022-11-24T08:13:44;32.77;;;4.63;;
58808;SDS011;44579;51.672;7.834;2022-11-24T08:16:12;35.08;;;5.38;;
58808;SDS011;44579;51.672;7.834;2022-11-24T08:18:40;18.17;;;2.72;;
58808;SDS011;44579;51.672;7.834;2022-11-24T08:21:12;12.30;;;2.42;;
58808;SDS011;44579;51.672;7.834;2022-11-24T08:23:40;16.17;;;2.35;;
58808;SDS011;44579;51.672;7.834;2022-11-24T08:26:09;27.15;;;2.70;;
58808;SDS011;44579;51.672;7.834;2022-11-24T08:28:39;18.15;;;2.08;;
58808;SDS011;44579;51.672;7.834;2022-11-24T08:31:07;19.38;;;1.85;;
58808;SDS011;44579;51.672;7.834;2022-11-24T08:33:38;19.67;;;2.65;;
58808;SDS011;44579;51.672;7.834;2022-11-24T08:36:12;4.35;;;1.88;;
58808;SDS011;44579;51.672;7.834;2022-11-24T08:38:43;15.52;;;2.00;;
58808;SDS011;44579;51.672;7.834;2022-11-24T08:41:12;13.70;;;2.30;;
58808;SDS011;44579;51.672;7.834;2022-11-24T08:43:40;2.65;;;1.90;;
58808;SDS011;44579;51.672;7.834;2022-11-24T08:46:08;17.70;;;2.53;;
58808;SDS011;44579;51.672;7.834;2022-11-24T08:48:43;13.40;;;2.50;;
58808;SDS011;44579;51.672;7.834;2022-11-24T08:51:17;12.88;;;2.67;;
58808;SDS011;44579;51.672;7.834;2022-11-24T08:53:45;2.15;;;0.68;;
58808;SDS011;44579;51.672;7.834;2022-11-24T08:56:12;15.43;;;2.43;;
58808;SDS011;44579;51.672;7.834;2022-11-24T08:58:40;1.67;;;0.70;;
58808;SDS011;44579;51.672;7.834;2022-11-24T09:01:09;8.68;;;1.17;;
58808;SDS011;44579;51.672;7.834;2022-11-24T09:03:37;6.95;;;1.67;;
58808;SDS011;44579;51.672;7.834;2022-11-24T09:06:08;6.47;;;1.88;;
58808;SDS011;44579;51.672;7.834;2022-11-24T09:08:36;9.40;;;2.38;;
58808;SDS011;44579;51.672;7.834;2022-11-24T09:11:04;2.17;;;1.05;;
58808;SDS011;44579;51.672;7.834;2022-11-24T09:13:33;9.27;;;2.63;;
58808;SDS011;44579;51.672;7.834;2022-11-24T09:16:03;9.57;;;1.30;;
58808;SDS011;44579;51.672;7.834;2022-11-24T09:18:32;8.63;;;2.00;;
58808;SDS011;44579;51.672;7.834;2022-11-24T09:23:56;10.98;;;1.50;;
58808;SDS011;44579;51.672;7.834;2022-11-24T09:26:33;5.68;;;1.00;;
58808;SDS011;44579;51.672;7.834;2022-11-24T09:29:02;13.20;;;1.40;;
58808;SDS011;44579;51.672;7.834;2022-11-24T09:31:32;2.47;;;1.27;;
58808;SDS011;44579;51.672;7.834;2022-11-24T09:34:01;8.52;;;1.30;;
58808;SDS011;44579;51.672;7.834;2022-11-24T09:36:33;14.25;;;2.38;;
58808;SDS011;44579;51.672;7.834;2022-11-24T09:39:00;4.60;;;1.25;;
58808;SDS011;44579;51.672;7.834;2022-11-24T09:41:46;5.85;;;1.80;;
58808;SDS011;44579;51.672;7.834;2022-11-24T09:50:24;3.13;;;0.85;;
58808;SDS011;44579;51.672;7.834;2022-11-24T09:53:13;6.22;;;1.23;;
58808;SDS011;44579;51.672;7.834;2022-11-24T09:55:49;9.93;;;1.35;;
58808;SDS011;44579;51.672;7.834;2022-11-24T10:01:19;0.63;;;0.50;;
58808;SDS011;44579;51.672;7.834;2022-11-24T10:03:50;3.47;;;0.98;;
58808;SDS011;44579;51.672;7.834;2022-11-24T10:06:22;2.70;;;0.73;;
58808;SDS011;44579;51.672;7.834;2022-11-24T10:17:46;8.18;;;1.88;;
58808;SDS011;44579;51.672;7.834;2022-11-24T10:20:21;12.18;;;1.90;;
58808;SDS011;44579;51.672;7.834;2022-11-24T10:24:01;7.63;;;2.22;;
58808;SDS011;44579;51.672;7.834;2022-11-24T10:26:15;3.92;;;1.95;;
58808;SDS011;44579;51.672;7.834;2022-11-24T10:28:55;5.57;;;1.50;;
58808;SDS011;44579;51.672;7.834;2022-11-24T10:31:36;9.77;;;1.70;;
58808;SDS011;44579;51.672;7.834;2022-11-24T10:34:11;1.67;;;0.73;;
58808;SDS011;44579;51.672;7.834;2022-11-24T10:36:55;16.65;;;2.25;;
58808;SDS011;44579;51.672;7.834;2022-11-24T10:39:48;7.18;;;1.45;;
58808;SDS011;44579;51.672;7.834;2022-11-24T10:42:30;5.35;;;1.70;;
58808;SDS011;44579;51.672;7.834;2022-11-24T10:45:14;3.70;;;0.95;;
58808;SDS011;44579;51.672;7.834;2022-11-24T10:47:43;11.93;;;1.92;;
58808;SDS011;44579;51.672;7.834;2022-11-24T10:52:54;9.35;;;1.75;;
58808;SDS011;44579;51.672;7.834;2022-11-24T10:58:23;3.15;;;1.10;;
58808;SDS011;44579;51.672;7.834;2022-11-24T11:03:46;18.35;;;3.40;;
58808;SDS011;44579;51.672;7.834;2022-11-24T11:06:28;3.53;;;2.30;;
58808;SDS011;44579;51.672;7.834;2022-11-24T11:11:33;3.72;;;2.13;;
58808;SDS011;44579;51.672;7.834;2022-11-24T11:14:04;16.52;;;2.00;;
58808;SDS011;44579;51.672;7.834;2022-11-24T11:16:35;15.25;;;3.30;;
58808;SDS011;44579;51.672;7.834;2022-11-24T11:25:02;6.10;;;2.58;;
58808;SDS011;44579;51.672;7.834;2022-11-24T11:27:29;12.68;;;2.75;;
58808;SDS011;44579;51.672;7.834;2022-11-24T11:30:17;5.70;;;2.92;;
58808;SDS011;44579;51.672;7.834;2022-11-24T11:33:17;6.70;;;3.75;;
58808;SDS011;44579;51.672;7.834;2022-11-24T11:36:08;12.35;;;2.40;;
58808;SDS011;44579;51.672;7.834;2022-11-24T11:38:37;0.35;;;0.35;;
58808;SDS011;44579;51.672;7.834;2022-11-24T11:41:05;2.38;;;1.00;;
58808;SDS011;44579;51.672;7.834;2022-11-24T11:43:39;5.30;;;1.73;;
58808;SDS011;44579;51.672;7.834;2022-11-24T11:48:33;12.45;;;2.80;;
58808;SDS011;44579;51.672;7.834;2022-11-24T11:54:04;13.75;;;3.72;;
58808;SDS011;44579;51.672;7.834;2022-11-24T11:56:37;33.45;;;4.53;;
58808;SDS011;44579;51.672;7.834;2022-11-24T12:02:23;13.23;;;3.05;;
58808;SDS011;44579;51.672;7.834;2022-11-24T12:11:30;10.77;;;2.92;;
58808;SDS011;44579;51.672;7.834;2022-11-24T12:25:16;15.60;;;4.32;;
58808;SDS011;44579;51.672;7.834;2022-11-24T12:33:57;16.67;;;3.22;;
58808;SDS011;44579;51.672;7.834;2022-11-24T12:39:26;8.15;;;2.33;;
58808;SDS011;44579;51.672;7.834;2022-11-24T12:42:10;11.90;;;2.88;;
58808;SDS011;44579;51.672;7.834;2022-11-24T12:44:58;7.95;;;2.40;;
58808;SDS011;44579;51.672;7.834;2022-11-24T12:50:25;1.35;;;1.10;;
58808;SDS011;44579;51.672;7.834;2022-11-24T12:55:39;22.77;;;4.90;;
58808;SDS011;44579;51.672;7.834;2022-11-24T13:03:57;26.15;;;4.00;;
58808;SDS011;44579;51.672;7.834;2022-11-24T13:09:06;16.05;;;3.33;;
58808;SDS011;44579;51.672;7.834;2022-11-24T13:11:38;11.70;;;4.22;;
58808;SDS011;44579;51.672;7.834;2022-11-24T13:14:11;13.05;;;3.20;;
58808;SDS011;44579;51.672;7.834;2022-11-24T13:16:57;2.25;;;1.55;;
58808;SDS011;44579;51.672;7.834;2022-11-24T13:19:46;12.00;;;3.65;;
58808;SDS011;44579;51.672;7.834;2022-11-24T13:22:16;3.17;;;1.17;;
58808;SDS011;44579;51.672;7.834;2022-11-24T13:24:43;31.23;;;2.85;;
58808;SDS011;44579;51.672;7.834;2022-11-24T13:29:44;9.65;;;3.25;;
58808;SDS011;44579;51.672;7.834;2022-11-24T13:40:06;12.90;;;3.15;;
58808;SDS011;44579;51.672;7.834;2022-11-24T13:53:30;15.77;;;1.58;;
58808;SDS011;44579;51.672;7.834;2022-11-24T13:56:22;18.05;;;3.17;;
58808;SDS011;44579;51.672;7.834;2022-11-24T13:58:52;16.73;;;3.65;;
58808;SDS011;44579;51.672;7.834;2022-11-24T14:01:31;23.08;;;3.28;;
58808;SDS011;44579;51.672;7.834;2022-11-24T14:04:20;14.18;;;2.85;;
58808;SDS011;44579;51.672;7.834;2022-11-24T14:07:02;20.17;;;3.63;;
58808;SDS011;44579;51.672;7.834;2022-11-24T14:09:44;33.30;;;3.97;;
58808;SDS011;44579;51.672;7.834;2022-11-24T14:12:20;23.38;;;4.43;;
58808;SDS011;44579;51.672;7.834;2022-11-24T14:14:55;17.35;;;2.97;;
58808;SDS011;44579;51.672;7.834;2022-11-24T14:17:46;13.93;;;3.47;;
58808;SDS011;44579;51.672;7.834;2022-11-24T14:20:23;12.90;;;3.60;;
58808;SDS011;44579;51.672;7.834;2022-11-24T14:22:53;20.17;;;4.05;;
58808;SDS011;44579;51.672;7.834;2022-11-24T14:25:30;19.70;;;4.35;;
58808;SDS011;44579;51.672;7.834;2022-11-24T14:28:01;16.80;;;3.13;;
58808;SDS011;44579;51.672;7.834;2022-11-24T14:30:28;16.13;;;3.38;;
58808;SDS011;44579;51.672;7.834;2022-11-24T14:32:55;28.58;;;4.88;;
58808;SDS011;44579;51.672;7.834;2022-11-24T14:38:02;25.23;;;4.63;;
58808;SDS011;44579;51.672;7.834;2022-11-24T14:40:47;21.25;;;3.55;;
58808;SDS011;44579;51.672;7.834;2022-11-24T14:45:58;12.40;;;2.80;;
58808;SDS011;44579;51.672;7.834;2022-11-24T14:48:29;17.02;;;3.53;;
58808;SDS011;44579;51.672;7.834;2022-11-24T14:51:15;16.23;;;3.05;;
58808;SDS011;44579;51.672;7.834;2022-11-24T14:53:47;14.65;;;2.63;;
58808;SDS011;44579;51.672;7.834;2022-11-24T14:58:50;28.65;;;4.65;;
58808;SDS011;44579;51.672;7.834;2022-11-24T15:12:21;10.73;;;3.85;;
58808;SDS011;44579;51.672;7.834;2022-11-24T15:17:32;17.23;;;3.65;;
58808;SDS011;44579;51.672;7.834;2022-11-24T15:20:09;14.98;;;3.40;;
58808;SDS011;44579;51.672;7.834;2022-11-24T15:25:55;10.23;;;3.20;;
58808;SDS011;44579;51.672;7.834;2022-11-24T15:28:28;12.23;;;3.40;;
58808;SDS011;44579;51.672;7.834;2022-11-24T15:31:08;9.98;;;2.90;;
58808;SDS011;44579;51.672;7.834;2022-11-24T15:33:37;8.00;;;2.40;;
58808;SDS011;44579;51.672;7.834;2022-11-24T15:36:04;14.50;;;3.20;;
58808;SDS011;44579;51.672;7.834;2022-11-24T15:38:31;6.75;;;3.35;;
58808;SDS011;44579;51.672;7.834;2022-11-24T15:40:58;11.25;;;2.67;;
58808;SDS011;44579;51.672;7.834;2022-11-24T15:45:59;19.65;;;3.78;;
58808;SDS011;44579;51.672;7.834;2022-11-24T15:48:27;10.52;;;2.92;;
58808;SDS011;44579;51.672;7.834;2022-11-24T15:50:55;14.57;;;3.22;;
58808;SDS011;44579;51.672;7.834;2022-11-24T15:53:38;20.85;;;3.65;;
58808;SDS011;44579;51.672;7.834;2022-11-24T15:56:14;23.77;;;3.47;;
58808;SDS011;44579;51.672;7.834;2022-11-24T15:58:54;14.70;;;4.40;;
58808;SDS011;44579;51.672;7.834;2022-11-24T16:01:21;5.88;;;2.80;;
58808;SDS011;44579;51.672;7.834;2022-11-24T16:03:50;9.95;;;3.38;;
58808;SDS011;44579;51.672;7.834;2022-11-24T16:06:17;13.60;;;4.47;;
58808;SDS011;44579;51.672;7.834;2022-11-24T16:08:51;13.88;;;3.85;;
58808;SDS011;44579;51.672;7.834;2022-11-24T16:11:18;16.20;;;3.25;;
58808;SDS011;44579;51.672;7.834;2022-11-24T16:13:45;16.10;;;3.78;;
58808;SDS011;44579;51.672;7.834;2022-11-24T16:16:19;16.75;;;3.78;;
58808;SDS011;44579;51.672;7.834;2022-11-24T16:18:47;8.30;;;3.10;;
58808;SDS011;44579;51.672;7.834;2022-11-24T16:21:13;22.07;;;4.27;;
58808;SDS011;44579;51.672;7.834;2022-11-24T16:23:40;21.60;;;5.50;;
58808;SDS011;44579;51.672;7.834;2022-11-24T16:26:08;25.47;;;5.50;;
58808;SDS011;44579;51.672;7.834;2022-11-24T16:31:02;16.37;;;5.50;;
58808;SDS011;44579;51.672;7.834;2022-11-24T16:33:29;14.80;;;4.72;;
58808;SDS011;44579;51.672;7.834;2022-11-24T16:35:56;28.20;;;4.78;;
58808;SDS011;44579;51.672;7.834;2022-11-24T16:38:23;25.35;;;4.50;;
58808;SDS011;44579;51.672;7.834;2022-11-24T16:40:50;15.90;;;3.63;;
58808;SDS011;44579;51.672;7.834;2022-11-24T16:43:18;18.05;;;3.58;;
58808;SDS011;44579;51.672;7.834;2022-11-24T16:45:45;30.52;;;4.78;;
58808;SDS011;44579;51.672;7.834;2022-11-24T16:48:15;18.30;;;5.97;;
58808;SDS011;44579;51.672;7.834;2022-11-24T16:50:42;17.05;;;5.45;;
58808;SDS011;44579;51.672;7.834;2022-11-24T16:53:08;18.35;;;6.72;;
58808;SDS011;44579;51.672;7.834;2022-11-24T16:55:35;17.63;;;7.15;;
58808;SDS011;44579;51.672;7.834;2022-11-24T16:58:02;24.80;;;7.20;;
58808;SDS011;44579;51.672;7.834;2022-11-24T17:02:56;23.67;;;6.68;;
58808;SDS011;44579;51.672;7.834;2022-11-24T17:05:23;28.17;;;7.18;;
58808;SDS011;44579;51.672;7.834;2022-11-24T17:07:53;15.15;;;5.40;;
58808;SDS011;44579;51.672;7.834;2022-11-24T17:10:20;21.97;;;5.47;;
58808;SDS011;44579;51.672;7.834;2022-11-24T17:12:46;20.42;;;6.13;;
58808;SDS011;44579;51.672;7.834;2022-11-24T17:15:13;26.83;;;7.28;;
58808;SDS011;44579;51.672;7.834;2022-11-24T17:17:59;20.35;;;6.10;;
58808;SDS011;44579;51.672;7.834;2022-11-24T17:20:45;15.55;;;5.60;;
58808;SDS011;44579;51.672;7.834;2022-11-24T17:23:12;19.80;;;6.53;;
58808;SDS011;44579;51.672;7.834;2022-11-24T17:25:39;17.27;;;6.25;;
58808;SDS011;44579;51.672;7.834;2022-11-24T17:28:06;32.15;;;6.55;;
58808;SDS011;44579;51.672;7.834;2022-11-24T17:30:35;17.10;;;5.20;;
58808;SDS011;44579;51.672;7.834;2022-11-24T17:33:02;14.98;;;6.47;;
58808;SDS011;44579;51.672;7.834;2022-11-24T17:35:29;24.10;;;6.63;;
58808;SDS011;44579;51.672;7.834;2022-11-24T17:37:58;14.65;;;5.43;;
58808;SDS011;44579;51.672;7.834;2022-11-24T17:42:58;17.77;;;6.90;;
58808;SDS011;44579;51.672;7.834;2022-11-24T17:45:26;15.43;;;5.97;;